Vingaren — OZ2131 — position and weather

sailwx.info

Track history (hours):
 
Tides and Currents Weather Stations Pressure Air Temp Water Temp Dewpoint Dewpoint Depression Visibility Wind Speed Wind Dir Waves Ship Positions

Vingaren

Last reported at 2015-Aug-28 15:11 UTC. Time now 2015-Sep-02 12:54 UTC.
Position N 59°19' E 017°32'.

Length 89 m; draft 5.9 m.

Type: Cargo ship. MMSI: 231844000.

Date/timePositionNaut miles runAvg speedWind from/ knotsBaromVisibWave heightAir tempDewpointWater temp
2015-Aug-28 15:11N 59°19' E 017°32'710.3
2015-Aug-28 14:33N 59°25' E 017°25'4 0.1
2015-Aug-26 20:20N 59°27' E 017°18'9 9.0
2015-Aug-26 19:19N 59°20' E 017°30'201 5.5
2015-Aug-25 06:28N 56°32' E 020°60'0 0.0
2015-Aug-25 05:28N 56°32' E 020°60'0 0.0
2015-Aug-25 04:19N 56°32' E 020°60'0 0.0
2015-Aug-25 03:28N 56°32' E 020°60'0 0.0
2015-Aug-25 02:25N 56°32' E 020°60'0 0.0
2015-Aug-24 06:24N 56°32' E 020°60'3 3.3
2015-Aug-24 05:34N 56°32' E 020°55'3 3.2
2015-Aug-24 04:33N 56°32' E 020°49'3 3.0
2015-Aug-24 03:33N 56°35' E 020°49'3 3.3
2015-Aug-24 02:33N 56°38' E 020°51'123 8.8
2015-Aug-23 12:33N 58°39' E 021°27'9 9.0
2015-Aug-23 11:33N 58°48' E 021°30'9 9.1
2015-Aug-23 10:33N 58°57' E 021°32'9 8.8
2015-Aug-23 09:33N 59°06' E 021°36'9 8.9
2015-Aug-23 08:34N 59°12' E 021°49'9 9.1
2015-Aug-23 07:33N 59°14' E 022°06'9 9.4
2015-Aug-23 06:33N 59°17' E 022°24'10 9.6
2015-Aug-23 05:34N 59°19' E 022°42'10 9.7
2015-Aug-23 04:34N 59°21' E 023°01'10 9.8
2015-Aug-23 03:34N 59°23' E 023°19'10 9.6
2015-Aug-23 02:33N 59°25' E 023°38'10 9.8
2015-Aug-23 01:34N 59°28' E 023°56'10 9.9
2015-Aug-23 00:34N 59°30' E 024°15'26 1.3
2015-Aug-22 03:31N 59°23' E 023°25'28 9.1
2015-Aug-22 00:28N 59°16' E 022°33'8 9.2
2015-Aug-21 23:33N 59°14' E 022°17'96 9.5
2015-Aug-21 13:23N 58°02' E 020°13'8 9.8
2015-Aug-21 12:33N 57°55' E 020°04'10 9.8
2015-Aug-21 11:33N 57°47' E 019°53'10 9.9
2015-Aug-21 10:33N 57°40' E 019°42'1010.0
2015-Aug-21 09:33N 57°32' E 019°30'10 9.9
2015-Aug-21 08:34N 57°24' E 019°19'10 9.8
2015-Aug-21 07:34N 57°16' E 019°08'10 9.7
2015-Aug-21 06:34N 57°09' E 018°57'10 9.8
2015-Aug-21 05:34N 57°01' E 018°46'10 9.7
2015-Aug-21 04:33N 56°53' E 018°35'10 9.5
2015-Aug-21 03:32N 56°46' E 018°22'59 9.7
2015-Aug-20 21:26N 56°10' E 016°58'10 9.6
2015-Aug-20 20:22N 56°04' E 016°43'8 9.4
2015-Aug-20 19:33N 56°00' E 016°31'9 9.5
2015-Aug-20 18:33N 55°59' E 016°14'9 9.4
2015-Aug-20 17:34N 55°57' E 015°58'9 8.9
2015-Aug-20 16:34N 55°56' E 015°42'9 9.2
2015-Aug-20 15:33N 55°59' E 015°27'9 9.0
2015-Aug-20 14:34N 56°02' E 015°12'9 9.1
2015-Aug-20 13:32N 56°06' E 014°56'5 5.4
2015-Aug-20 12:34N 56°10' E 014°49'0 0.0
2015-Aug-20 11:31N 56°10' E 014°49'0 0.0
2015-Aug-20 10:28N 56°10' E 014°49'0 0.0
2015-Aug-20 09:31N 56°10' E 014°49'0 0.0
2015-Aug-20 08:31N 56°10' E 014°49'0 0.0
2015-Aug-20 07:28N 56°10' E 014°49'0 0.0
2015-Aug-20 06:25N 56°10' E 014°49'0 0.0
2015-Aug-20 04:19N 56°10' E 014°49'0 0.0
2015-Aug-20 03:22N 56°10' E 014°49'0 0.0
2015-Aug-19 17:07N 56°10' E 014°49'0 0.0
2015-Aug-19 16:31N 56°10' E 014°49'0 0.0
2015-Aug-19 15:31N 56°10' E 014°49'0 0.0
2015-Aug-19 12:25N 56°10' E 014°49'6 5.9
2015-Aug-19 11:21N 56°03' E 014°52'8 9.8
2015-Aug-19 10:33N 55°56' E 014°51'10 9.8
2015-Aug-19 09:33N 55°46' E 014°47'10 9.7
2015-Aug-19 08:33N 55°37' E 014°43'10 9.8
2015-Aug-19 07:33N 55°27' E 014°39'10 9.6
2015-Aug-19 06:33N 55°19' E 014°31'10 9.6
2015-Aug-19 05:33N 55°12' E 014°20'9 9.5
2015-Aug-19 04:33N 55°11' E 014°03'9 9.4
2015-Aug-19 03:33N 55°12' E 013°47'9 9.0
2015-Aug-19 02:33N 55°13' E 013°31'8 8.2
2015-Aug-19 01:33N 55°13' E 013°17'8 7.9
2015-Aug-19 00:33N 55°14' E 013°03'7 7.4
2015-Aug-18 23:33N 55°16' E 012°50'7 7.4
2015-Aug-18 22:33N 55°18' E 012°38'9 8.7
2015-Aug-18 21:33N 55°27' E 012°41'9 8.6
2015-Aug-18 20:33N 55°36' E 012°42'8 8.0
2015-Aug-18 19:33N 55°44' E 012°41'8 8.3
2015-Aug-18 18:33N 55°52' E 012°39'8 8.4
2015-Aug-18 17:33N 56°00' E 012°38'6 5.5
2015-Aug-18 16:34N 56°05' E 012°34'5 5.0
2015-Aug-18 15:34N 56°10' E 012°29'  
Track history (hours):
 
Tides and Currents Weather Stations Pressure Air Temp Water Temp Dewpoint Dewpoint Depression Visibility Wind Speed Wind Dir Waves Ship Positions

Vingaren

Last reported at 2015-Aug-28 15:11 UTC. Time now 2015-Sep-02 12:54 UTC.
Position N 59°19' E 017°32'.

Length 89 m; draft 5.9 m.

Type: Cargo ship. MMSI: 231844000.

Date/timePositionNaut miles runAvg speedWind from/ knotsBaromVisibWave heightAir tempDewpointWater temp
2015-Aug-28 15:11N 59°19' E 017°32'710.3
2015-Aug-28 14:33N 59°25' E 017°25'4 0.1
2015-Aug-26 20:20N 59°27' E 017°18'9 9.0
2015-Aug-26 19:19N 59°20' E 017°30'201 5.5
2015-Aug-25 06:28N 56°32' E 020°60'0 0.0
2015-Aug-25 05:28N 56°32' E 020°60'0 0.0
2015-Aug-25 04:19N 56°32' E 020°60'0 0.0
2015-Aug-25 03:28N 56°32' E 020°60'0 0.0
2015-Aug-25 02:25N 56°32' E 020°60'0 0.0
2015-Aug-24 06:24N 56°32' E 020°60'3 3.3
2015-Aug-24 05:34N 56°32' E 020°55'3 3.2
2015-Aug-24 04:33N 56°32' E 020°49'3 3.0
2015-Aug-24 03:33N 56°35' E 020°49'3 3.3
2015-Aug-24 02:33N 56°38' E 020°51'123 8.8
2015-Aug-23 12:33N 58°39' E 021°27'9 9.0
2015-Aug-23 11:33N 58°48' E 021°30'9 9.1
2015-Aug-23 10:33N 58°57' E 021°32'9 8.8
2015-Aug-23 09:33N 59°06' E 021°36'9 8.9
2015-Aug-23 08:34N 59°12' E 021°49'9 9.1
2015-Aug-23 07:33N 59°14' E 022°06'9 9.4
2015-Aug-23 06:33N 59°17' E 022°24'10 9.6
2015-Aug-23 05:34N 59°19' E 022°42'10 9.7
2015-Aug-23 04:34N 59°21' E 023°01'10 9.8
2015-Aug-23 03:34N 59°23' E 023°19'10 9.6
2015-Aug-23 02:33N 59°25' E 023°38'10 9.8
2015-Aug-23 01:34N 59°28' E 023°56'10 9.9
2015-Aug-23 00:34N 59°30' E 024°15'26 1.3
2015-Aug-22 03:31N 59°23' E 023°25'28 9.1
2015-Aug-22 00:28N 59°16' E 022°33'8 9.2
2015-Aug-21 23:33N 59°14' E 022°17'96 9.5
2015-Aug-21 13:23N 58°02' E 020°13'8 9.8
2015-Aug-21 12:33N 57°55' E 020°04'10 9.8
2015-Aug-21 11:33N 57°47' E 019°53'10 9.9
2015-Aug-21 10:33N 57°40' E 019°42'1010.0
2015-Aug-21 09:33N 57°32' E 019°30'10 9.9
2015-Aug-21 08:34N 57°24' E 019°19'10 9.8
2015-Aug-21 07:34N 57°16' E 019°08'10 9.7
2015-Aug-21 06:34N 57°09' E 018°57'10 9.8
2015-Aug-21 05:34N 57°01' E 018°46'10 9.7
2015-Aug-21 04:33N 56°53' E 018°35'10 9.5
2015-Aug-21 03:32N 56°46' E 018°22'59 9.7
2015-Aug-20 21:26N 56°10' E 016°58'10 9.6
2015-Aug-20 20:22N 56°04' E 016°43'8 9.4
2015-Aug-20 19:33N 56°00' E 016°31'9 9.5
2015-Aug-20 18:33N 55°59' E 016°14'9 9.4
2015-Aug-20 17:34N 55°57' E 015°58'9 8.9
2015-Aug-20 16:34N 55°56' E 015°42'9 9.2
2015-Aug-20 15:33N 55°59' E 015°27'9 9.0
2015-Aug-20 14:34N 56°02' E 015°12'9 9.1
2015-Aug-20 13:32N 56°06' E 014°56'5 5.4
2015-Aug-20 12:34N 56°10' E 014°49'0 0.0
2015-Aug-20 11:31N 56°10' E 014°49'0 0.0
2015-Aug-20 10:28N 56°10' E 014°49'0 0.0
2015-Aug-20 09:31N 56°10' E 014°49'0 0.0
2015-Aug-20 08:31N 56°10' E 014°49'0 0.0
2015-Aug-20 07:28N 56°10' E 014°49'0 0.0
2015-Aug-20 06:25N 56°10' E 014°49'0 0.0
2015-Aug-20 04:19N 56°10' E 014°49'0 0.0
2015-Aug-20 03:22N 56°10' E 014°49'0 0.0
2015-Aug-19 17:07N 56°10' E 014°49'0 0.0
2015-Aug-19 16:31N 56°10' E 014°49'0 0.0
2015-Aug-19 15:31N 56°10' E 014°49'0 0.0
2015-Aug-19 12:25N 56°10' E 014°49'6 5.9
2015-Aug-19 11:21N 56°03' E 014°52'8 9.8
2015-Aug-19 10:33N 55°56' E 014°51'10 9.8
2015-Aug-19 09:33N 55°46' E 014°47'10 9.7
2015-Aug-19 08:33N 55°37' E 014°43'10 9.8
2015-Aug-19 07:33N 55°27' E 014°39'10 9.6
2015-Aug-19 06:33N 55°19' E 014°31'10 9.6
2015-Aug-19 05:33N 55°12' E 014°20'9 9.5
2015-Aug-19 04:33N 55°11' E 014°03'9 9.4
2015-Aug-19 03:33N 55°12' E 013°47'9 9.0
2015-Aug-19 02:33N 55°13' E 013°31'8 8.2
2015-Aug-19 01:33N 55°13' E 013°17'8 7.9
2015-Aug-19 00:33N 55°14' E 013°03'7 7.4
2015-Aug-18 23:33N 55°16' E 012°50'7 7.4
2015-Aug-18 22:33N 55°18' E 012°38'9 8.7
2015-Aug-18 21:33N 55°27' E 012°41'9 8.6
2015-Aug-18 20:33N 55°36' E 012°42'8 8.0
2015-Aug-18 19:33N 55°44' E 012°41'8 8.3
2015-Aug-18 18:33N 55°52' E 012°39'8 8.4
2015-Aug-18 17:33N 56°00' E 012°38'6 5.5
2015-Aug-18 16:34N 56°05' E 012°34'5 5.0
2015-Aug-18 15:34N 56°10' E 012°29'  

Dump ship's entire track history